createdAt,value
2023-03-09T00:01:54.552Z,99.90
2023-03-09T00:04:23.894Z,99.90
2023-03-09T00:06:52.864Z,99.90
2023-03-09T00:09:22.035Z,99.90
2023-03-09T00:11:53.214Z,99.90
2023-03-09T00:14:23.476Z,99.90
2023-03-09T00:16:52.795Z,99.90
2023-03-09T00:19:28.121Z,99.90
2023-03-09T00:21:58.392Z,99.90
2023-03-09T00:24:29.846Z,99.90
2023-03-09T00:27:02.934Z,99.90
2023-03-09T00:29:33.254Z,99.90
2023-03-09T00:32:02.191Z,99.90
2023-03-09T00:34:31.069Z,99.90
2023-03-09T00:36:59.971Z,99.90
2023-03-09T00:39:28.964Z,99.90
2023-03-09T00:41:59.260Z,99.90
2023-03-09T00:44:28.030Z,99.90
2023-03-09T00:46:56.846Z,99.90
2023-03-09T00:49:26.131Z,99.90
2023-03-09T00:51:54.868Z,99.90
2023-03-09T00:54:23.710Z,99.90
2023-03-09T00:56:52.492Z,99.90
2023-03-09T00:59:22.640Z,99.90
2023-03-09T01:01:51.501Z,99.90
2023-03-09T01:04:20.271Z,99.90
2023-03-09T01:06:49.176Z,99.90
2023-03-09T01:09:17.979Z,99.90
2023-03-09T01:11:46.796Z,99.90
2023-03-09T01:14:15.700Z,99.90
2023-03-09T01:16:45.886Z,99.90
2023-03-09T01:19:14.896Z,99.90
2023-03-09T01:21:43.773Z,99.90
2023-03-09T01:24:12.574Z,99.90
2023-03-09T01:26:41.378Z,99.90
2023-03-09T01:29:10.412Z,99.90
2023-03-09T01:31:39.355Z,99.90
2023-03-09T01:34:12.395Z,99.90
2023-03-09T01:36:42.026Z,99.90
2023-03-09T01:39:12.238Z,99.90
2023-03-09T01:41:41.268Z,99.90
2023-03-09T01:44:14.220Z,99.90
2023-03-09T01:46:52.045Z,99.90
2023-03-09T01:49:32.781Z,99.90
2023-03-09T01:52:10.618Z,99.90
2023-03-09T01:54:48.927Z,99.90
2023-03-09T01:57:28.182Z,99.90
2023-03-09T02:00:08.379Z,99.90
2023-03-09T02:02:42.258Z,99.90
2023-03-09T02:05:15.516Z,99.90
2023-03-09T02:07:49.866Z,99.90
2023-03-09T02:10:27.857Z,99.90
2023-03-09T02:13:02.473Z,99.90
2023-03-09T02:15:31.359Z,99.90
2023-03-09T02:18:00.779Z,99.90
2023-03-09T02:20:41.459Z,99.90
2023-03-09T02:23:20.721Z,99.90
2023-03-09T02:25:59.998Z,99.90
2023-03-09T02:28:30.357Z,99.90
2023-03-09T02:30:59.948Z,99.90
2023-03-09T02:33:31.780Z,99.90
2023-03-09T02:36:03.071Z,99.90
2023-03-09T02:38:31.905Z,99.90
2023-03-09T02:41:04.967Z,99.90
2023-03-09T02:43:39.179Z,99.90
2023-03-09T02:46:08.679Z,99.90
2023-03-09T02:48:38.184Z,99.90
2023-03-09T02:51:07.662Z,99.90
2023-03-09T02:53:37.011Z,99.90
2023-03-09T02:56:06.571Z,99.90
2023-03-09T02:58:36.980Z,99.90
2023-03-09T03:01:05.913Z,99.90
2023-03-09T03:03:35.029Z,99.90
2023-03-09T03:06:03.823Z,99.90
2023-03-09T03:08:36.866Z,99.90
2023-03-09T03:11:06.717Z,99.90
2023-03-09T03:13:37.021Z,99.90
2023-03-09T03:16:07.080Z,99.90
2023-03-09T03:18:36.044Z,99.90
2023-03-09T03:21:05.137Z,99.90
2023-03-09T03:23:34.071Z,99.90
2023-03-09T03:26:08.744Z,99.90
2023-03-09T03:28:39.738Z,99.90
2023-03-09T03:31:08.904Z,99.90
2023-03-09T03:33:37.909Z,99.90
2023-03-09T03:36:08.814Z,99.90
2023-03-09T03:38:37.742Z,99.90
2023-03-09T03:41:07.786Z,99.90
2023-03-09T03:43:36.744Z,99.90
2023-03-09T03:46:07.477Z,99.90
2023-03-09T03:48:37.878Z,99.90
2023-03-09T03:51:07.755Z,99.90
2023-03-09T03:53:39.858Z,99.90
2023-03-09T03:56:09.589Z,99.90
2023-03-09T03:58:38.836Z,99.90
2023-03-09T04:01:09.678Z,99.90
2023-03-09T04:03:38.722Z,99.90
2023-03-09T04:06:08.429Z,99.90
2023-03-09T04:08:37.800Z,99.90
2023-03-09T04:11:11.534Z,99.90
2023-03-09T04:13:40.425Z,99.90
2023-03-09T04:16:10.992Z,99.90
2023-03-09T04:18:39.916Z,99.90
2023-03-09T04:21:08.731Z,99.90
2023-03-09T04:23:37.834Z,99.90
2023-03-09T04:26:08.301Z,99.90
2023-03-09T04:28:37.132Z,99.90
2023-03-09T04:31:06.358Z,99.90
2023-03-09T04:33:37.257Z,99.90
2023-03-09T04:36:07.066Z,99.90
2023-03-09T04:38:36.248Z,99.90
2023-03-09T04:41:05.571Z,99.90
2023-03-09T04:43:34.501Z,99.90
2023-03-09T04:46:04.013Z,99.90
2023-03-09T04:48:32.974Z,99.90
2023-03-09T04:51:03.382Z,99.90
2023-03-09T04:53:32.451Z,99.90
2023-03-09T04:56:01.406Z,99.90
2023-03-09T04:58:30.306Z,99.90
2023-03-09T05:00:59.413Z,99.90
2023-03-09T05:03:28.282Z,99.90
2023-03-09T05:05:57.365Z,99.90
2023-03-09T05:08:27.636Z,99.90
2023-03-09T05:10:56.699Z,99.90
2023-03-09T05:13:26.184Z,99.90
2023-03-09T05:15:55.103Z,99.90
2023-03-09T05:18:24.102Z,99.90
2023-03-09T05:20:52.989Z,99.90
2023-03-09T05:23:21.895Z,99.90
2023-03-09T05:26:00.594Z,99.90
2023-03-09T05:28:31.703Z,99.90
2023-03-09T05:31:00.827Z,99.90
2023-03-09T05:33:30.073Z,99.90
2023-03-09T05:35:58.864Z,99.90
2023-03-09T05:38:28.021Z,99.90
2023-03-09T05:40:58.370Z,99.90
2023-03-09T05:43:27.484Z,99.90
2023-03-09T05:45:57.361Z,99.90
2023-03-09T05:48:26.644Z,99.90
2023-03-09T05:50:55.474Z,99.90
2023-03-09T05:53:24.485Z,99.90
2023-03-09T05:55:53.980Z,99.90
2023-03-09T05:58:24.583Z,99.90
2023-03-09T06:00:53.869Z,99.90
2023-03-09T06:03:22.879Z,99.90
2023-03-09T06:06:00.822Z,99.90
2023-03-09T06:08:30.525Z,99.90
2023-03-09T06:11:00.793Z,99.90
2023-03-09T06:13:31.194Z,99.90
2023-03-09T06:16:00.010Z,99.90
2023-03-09T06:18:29.205Z,99.90
2023-03-09T06:21:03.450Z,99.90
2023-03-09T06:23:33.490Z,99.90
2023-03-09T06:26:04.545Z,99.90
2023-03-09T06:28:35.995Z,99.90
2023-03-09T06:31:09.244Z,99.90
2023-03-09T06:33:38.131Z,99.90
2023-03-09T06:36:08.176Z,99.90
2023-03-09T06:38:37.026Z,99.90
2023-03-09T06:41:06.594Z,99.90
2023-03-09T06:43:37.310Z,99.90
2023-03-09T06:46:06.468Z,99.90
2023-03-09T06:48:35.282Z,99.90
2023-03-09T06:51:04.557Z,99.90
2023-03-09T06:53:33.707Z,99.90
2023-03-09T06:56:02.948Z,99.90
2023-03-09T06:58:33.839Z,99.90
2023-03-09T07:01:10.076Z,99.90
2023-03-09T07:03:41.076Z,99.90
2023-03-09T07:06:10.440Z,99.90
2023-03-09T07:08:39.401Z,99.90
2023-03-09T07:11:08.409Z,99.90
2023-03-09T07:13:37.354Z,99.90
2023-03-09T07:16:09.307Z,99.90
2023-03-09T07:18:38.103Z,99.90
2023-03-09T07:21:07.720Z,99.90
2023-03-09T07:23:36.507Z,99.90
2023-03-09T07:26:07.095Z,99.90
2023-03-09T07:28:36.000Z,99.90
2023-03-09T07:31:12.047Z,99.90
2023-03-09T07:33:41.768Z,99.90
2023-03-09T07:36:12.201Z,99.90
2023-03-09T07:38:41.028Z,99.90
2023-03-09T07:41:09.792Z,99.90
2023-03-09T07:43:44.969Z,99.90
2023-03-09T07:46:17.599Z,99.90
2023-03-09T07:48:47.658Z,99.90
2023-03-09T07:51:16.822Z,99.90
2023-03-09T07:53:45.663Z,99.90
2023-03-09T07:56:14.561Z,99.90
2023-03-09T07:58:44.278Z,99.90
2023-03-09T08:01:19.085Z,99.90
2023-03-09T08:03:48.526Z,99.90
2023-03-09T08:06:18.168Z,99.90
2023-03-09T08:08:48.074Z,99.90
2023-03-09T08:11:18.036Z,99.90
2023-03-09T08:13:46.944Z,99.90
2023-03-09T08:16:17.163Z,99.90
2023-03-09T08:18:46.237Z,99.90
2023-03-09T08:21:17.036Z,99.90
2023-03-09T08:23:46.199Z,99.90
2023-03-09T08:26:16.860Z,99.90
2023-03-09T08:28:46.967Z,99.90
2023-03-09T08:31:19.207Z,99.90
2023-03-09T08:33:51.155Z,99.90
2023-03-09T08:36:22.950Z,99.90
2023-03-09T08:38:52.459Z,99.90
2023-03-09T08:41:22.528Z,99.90
2023-03-09T08:43:53.317Z,99.90
2023-03-09T08:46:23.612Z,99.90
2023-03-09T08:48:52.397Z,99.90
2023-03-09T08:51:21.242Z,99.90
2023-03-09T08:53:50.027Z,99.90
2023-03-09T08:56:18.992Z,99.90
2023-03-09T08:58:49.161Z,99.90
2023-03-09T09:01:18.577Z,99.90
2023-03-09T09:03:49.356Z,99.90
2023-03-09T09:06:18.995Z,99.90
2023-03-09T09:08:48.044Z,99.90
2023-03-09T09:11:18.916Z,99.90
2023-03-09T09:13:48.229Z,99.90
2023-03-09T09:16:17.637Z,99.90
2023-03-09T09:18:48.293Z,99.90
2023-03-09T09:21:19.083Z,99.90
2023-03-09T09:23:48.920Z,99.90
2023-03-09T09:28:48.282Z,99.90
2023-03-09T09:31:21.257Z,99.90
2023-03-09T09:33:52.135Z,99.90
2023-03-09T09:36:20.964Z,99.90
2023-03-09T09:38:50.222Z,99.90
2023-03-09T09:41:27.134Z,99.90
2023-03-09T09:44:03.162Z,99.90
2023-03-09T09:46:35.214Z,99.90
2023-03-09T09:49:19.416Z,99.90
2023-03-09T09:52:12.833Z,99.90
2023-03-09T09:54:52.242Z,99.90
2023-03-09T09:57:26.029Z,99.90
2023-03-09T10:00:03.666Z,99.90
2023-03-09T10:02:59.469Z,99.90
2023-03-09T10:05:41.927Z,99.90
2023-03-09T10:08:28.042Z,99.90
2023-03-09T10:11:02.605Z,99.90
2023-03-09T10:13:40.387Z,99.90
2023-03-09T10:16:17.789Z,99.90
2023-03-09T10:18:54.990Z,99.90
2023-03-09T10:21:32.461Z,99.90
2023-03-09T10:24:17.234Z,99.90
2023-03-09T10:26:56.241Z,99.90
2023-03-09T10:29:42.446Z,99.90
2023-03-09T10:32:22.330Z,99.90
2023-03-09T10:35:00.712Z,99.90
2023-03-09T10:37:36.832Z,99.90
2023-03-09T10:40:18.674Z,99.90
2023-03-09T10:42:47.755Z,99.90
2023-03-09T10:45:27.745Z,99.90
2023-03-09T10:48:02.103Z,99.90
2023-03-09T10:50:37.322Z,99.90
2023-03-09T10:53:33.502Z,98.80
2023-03-09T10:56:17.153Z,97.40
2023-03-09T10:58:45.933Z,97.20
2023-03-09T11:01:26.129Z,96.40
2023-03-09T11:03:55.049Z,96.50
2023-03-09T11:06:38.342Z,96.60
2023-03-09T11:09:20.169Z,96.30
2023-03-09T11:11:50.996Z,96.30
2023-03-09T11:14:30.338Z,95.60
2023-03-09T11:17:02.025Z,95.60
2023-03-09T11:19:33.499Z,96.30
2023-03-09T11:22:14.752Z,95.50
2023-03-09T11:24:47.948Z,95.70
2023-03-09T11:27:25.686Z,95.70
2023-03-09T11:30:04.096Z,96.30
2023-03-09T11:32:33.037Z,95.80
2023-03-09T11:35:03.354Z,95.20
2023-03-09T11:37:43.765Z,94.50
2023-03-09T11:40:18.842Z,93.80
2023-03-09T11:42:52.692Z,94.40
2023-03-09T11:45:25.340Z,94.40
2023-03-09T11:48:00.421Z,94.40
2023-03-09T11:50:37.114Z,94.90
2023-03-09T11:53:14.559Z,94.50
2023-03-09T11:55:49.544Z,95.20
2023-03-09T11:58:27.462Z,95.50
2023-03-09T12:01:17.473Z,95.80
2023-03-09T12:03:57.779Z,94.00
2023-03-09T12:06:44.317Z,93.00
2023-03-09T12:09:27.277Z,91.70
2023-03-09T12:12:03.850Z,91.00
2023-03-09T12:14:38.563Z,90.20
2023-03-09T12:17:18.840Z,89.60
2023-03-09T12:19:51.977Z,87.40
2023-03-09T12:22:31.007Z,87.20
2023-03-09T12:25:04.139Z,85.50
2023-03-09T12:27:37.230Z,84.50
2023-03-09T12:30:24.753Z,83.40
2023-03-09T12:32:58.054Z,82.80
2023-03-09T12:36:00.337Z,81.10
2023-03-09T12:38:29.212Z,82.30
2023-03-09T12:40:58.686Z,81.70
2023-03-09T12:43:53.344Z,81.60
2023-03-09T12:47:03.640Z,81.10
2023-03-09T12:49:42.348Z,81.60
2023-03-09T12:52:40.485Z,81.30
2023-03-09T12:55:22.420Z,79.50
2023-03-09T12:57:53.609Z,77.60
2023-03-09T13:00:30.664Z,76.30
2023-03-09T13:03:15.018Z,75.30
2023-03-09T13:05:46.704Z,74.60
2023-03-09T13:08:34.118Z,71.50
2023-03-09T13:11:33.844Z,72.30
2023-03-09T13:14:03.921Z,71.70
2023-03-09T13:16:59.344Z,69.80
2023-03-09T13:19:56.274Z,70.30
2023-03-09T13:22:42.231Z,70.30
2023-03-09T13:25:34.921Z,70.00
2023-03-09T13:28:15.102Z,70.20
2023-03-09T13:30:47.078Z,70.00
2023-03-09T13:33:23.933Z,70.50
2023-03-09T13:35:59.895Z,71.00
2023-03-09T13:38:36.074Z,71.70
2023-03-09T13:41:08.741Z,72.00
2023-03-09T13:43:39.206Z,72.20
2023-03-09T13:46:29.338Z,72.60
2023-03-09T13:49:08.660Z,72.90
2023-03-09T13:51:49.834Z,73.80
2023-03-09T13:54:28.416Z,73.90
2023-03-09T13:57:12.742Z,74.30
2023-03-09T14:00:01.658Z,74.60
2023-03-09T14:02:34.082Z,74.70
2023-03-09T14:08:21.616Z,75.60
2023-03-09T14:10:52.236Z,76.10
2023-03-09T14:13:25.073Z,76.20
2023-03-09T14:16:07.590Z,76.70
2023-03-09T14:18:43.692Z,77.60
2023-03-09T14:21:27.313Z,78.00
2023-03-09T14:24:11.025Z,79.60
2023-03-09T14:26:39.997Z,79.40
2023-03-09T14:29:29.910Z,79.70
2023-03-09T14:32:28.287Z,79.80
2023-03-09T14:34:59.280Z,79.80
2023-03-09T14:37:32.677Z,80.30
2023-03-09T14:40:14.661Z,80.70
2023-03-09T14:42:43.516Z,81.10
2023-03-09T14:45:26.777Z,82.00
2023-03-09T14:47:57.804Z,81.60
2023-03-09T14:50:28.916Z,82.30
2023-03-09T14:52:59.071Z,81.90
2023-03-09T14:55:27.861Z,81.70
2023-03-09T14:57:56.622Z,82.30
2023-03-09T15:00:27.742Z,82.40
2023-03-09T15:02:56.755Z,82.50
2023-03-09T15:05:27.094Z,82.60
2023-03-09T15:07:55.882Z,82.50
2023-03-09T15:10:28.160Z,82.90
2023-03-09T15:12:57.605Z,83.60
2023-03-09T15:15:29.132Z,83.30
2023-03-09T15:17:58.066Z,83.30
2023-03-09T15:20:43.826Z,83.80
2023-03-09T15:23:13.734Z,83.70
2023-03-09T15:25:45.065Z,84.10
2023-03-09T15:28:14.014Z,84.10
2023-03-09T15:30:42.941Z,84.30
2023-03-09T15:33:11.753Z,84.20
2023-03-09T15:35:43.563Z,84.30
2023-03-09T15:38:12.507Z,84.50
2023-03-09T15:40:44.584Z,84.60
2023-03-09T15:43:13.547Z,84.70
2023-03-09T15:45:43.556Z,84.80
2023-03-09T15:48:12.754Z,85.10
2023-03-09T15:50:41.620Z,85.70
2023-03-09T15:53:10.759Z,85.30
2023-03-09T15:55:39.461Z,85.30
2023-03-09T15:58:10.011Z,85.80
2023-03-09T16:00:38.711Z,86.00
2023-03-09T16:03:07.510Z,86.40
2023-03-09T16:05:36.292Z,86.30
2023-03-09T16:08:05.373Z,85.60
2023-03-09T16:10:34.225Z,85.70
2023-03-09T16:13:02.994Z,85.90
2023-03-09T16:15:33.126Z,86.00
2023-03-09T16:18:01.885Z,85.60
2023-03-09T16:20:30.697Z,85.40
2023-03-09T16:22:59.484Z,85.50
2023-03-09T16:25:30.000Z,85.50
2023-03-09T16:28:01.037Z,85.70
2023-03-09T16:30:30.824Z,85.90
2023-03-09T16:33:01.219Z,85.70
2023-03-09T16:35:29.983Z,85.70
2023-03-09T16:37:58.987Z,85.90
2023-03-09T16:40:27.704Z,86.10
2023-03-09T16:42:56.660Z,86.50
2023-03-09T16:45:25.572Z,86.60
2023-03-09T16:47:55.321Z,86.40
2023-03-09T16:50:27.485Z,86.40
2023-03-09T16:52:56.250Z,86.90
2023-03-09T16:55:25.773Z,86.90
2023-03-09T16:57:54.506Z,87.40
2023-03-09T17:00:23.934Z,88.30
2023-03-09T17:02:53.409Z,90.00
2023-03-09T17:05:22.612Z,91.60
2023-03-09T17:07:52.735Z,90.90
2023-03-09T17:10:23.586Z,89.80
2023-03-09T17:12:52.316Z,90.00
2023-03-09T17:15:21.273Z,89.60
2023-03-09T17:17:50.069Z,88.40
2023-03-09T17:20:19.839Z,88.90
2023-03-09T17:22:48.684Z,90.80
2023-03-09T17:25:21.913Z,92.40
2023-03-09T17:27:51.211Z,93.20
2023-03-09T17:30:26.434Z,94.30
2023-03-09T17:33:01.895Z,94.20
2023-03-09T17:35:30.649Z,94.00
2023-03-09T17:38:00.347Z,93.50
2023-03-09T17:40:30.661Z,93.90
2023-03-09T17:42:59.608Z,94.10
2023-03-09T17:45:28.521Z,94.80
2023-03-09T17:47:57.313Z,95.10
2023-03-09T17:50:26.035Z,95.70
2023-03-09T17:52:55.266Z,96.60
2023-03-09T17:55:24.119Z,97.40
2023-03-09T17:57:54.362Z,97.70
2023-03-09T18:00:25.239Z,98.70
2023-03-09T18:02:54.080Z,99.10
2023-03-09T18:05:24.085Z,99.90
2023-03-09T18:07:53.498Z,99.90
2023-03-09T18:10:22.535Z,99.90
2023-03-09T18:12:51.379Z,99.90
2023-03-09T18:15:22.205Z,99.90
2023-03-09T18:17:51.006Z,99.90
2023-03-09T18:20:20.412Z,99.90
2023-03-09T18:22:49.302Z,99.90
2023-03-09T18:25:18.483Z,99.90
2023-03-09T18:27:47.398Z,99.90
2023-03-09T18:30:17.121Z,99.90
2023-03-09T18:32:47.392Z,99.90
2023-03-09T18:35:16.492Z,99.90
2023-03-09T18:37:48.635Z,99.90
2023-03-09T18:40:18.305Z,99.90
2023-03-09T18:42:47.149Z,99.90
2023-03-09T18:45:18.626Z,99.90
2023-03-09T18:47:49.144Z,99.90
2023-03-09T18:50:18.613Z,99.90
2023-03-09T18:52:47.562Z,99.90
2023-03-09T18:55:17.353Z,99.90
2023-03-09T18:57:46.524Z,99.90
2023-03-09T19:00:17.269Z,99.90
2023-03-09T19:02:47.580Z,99.90
2023-03-09T19:05:16.438Z,99.90
2023-03-09T19:07:45.369Z,99.90
2023-03-09T19:10:14.580Z,99.90
2023-03-09T19:12:44.024Z,99.90
2023-03-09T19:15:13.289Z,99.90
2023-03-09T19:17:42.104Z,99.90
2023-03-09T19:20:13.903Z,99.90
2023-03-09T19:22:42.657Z,99.90
2023-03-09T19:25:12.167Z,99.90
2023-03-09T19:27:41.591Z,99.90
2023-03-09T19:30:13.051Z,99.90
2023-03-09T19:32:41.900Z,99.90
2023-03-09T19:35:12.770Z,99.90
2023-03-09T19:37:42.066Z,99.90
2023-03-09T19:40:14.780Z,99.90
2023-03-09T19:42:45.296Z,99.90
2023-03-09T19:45:14.076Z,99.90
2023-03-09T19:47:42.842Z,99.90
2023-03-09T19:50:14.142Z,99.90
2023-03-09T19:52:42.934Z,99.90
2023-03-09T19:55:12.613Z,99.90
2023-03-09T19:57:43.261Z,99.90
2023-03-09T20:00:13.918Z,99.90
2023-03-09T20:02:42.745Z,99.90
2023-03-09T20:05:13.543Z,99.90
2023-03-09T20:07:42.390Z,99.90
2023-03-09T20:10:15.911Z,99.90
2023-03-09T20:12:44.983Z,99.90
2023-03-09T20:15:14.262Z,99.90
2023-03-09T20:17:43.005Z,99.90
2023-03-09T20:20:14.164Z,99.90
2023-03-09T20:22:43.126Z,99.90
2023-03-09T20:25:12.096Z,99.90
2023-03-09T20:27:40.932Z,99.90
2023-03-09T20:30:11.859Z,99.90
2023-03-09T20:32:41.132Z,99.90
2023-03-09T20:35:10.532Z,99.90
2023-03-09T20:37:43.036Z,99.90
2023-03-09T20:40:13.821Z,99.90
2023-03-09T20:42:42.690Z,99.90
2023-03-09T20:45:12.362Z,99.90
2023-03-09T20:47:42.427Z,99.90
2023-03-09T20:50:13.148Z,99.90
2023-03-09T20:52:44.689Z,99.90
2023-03-09T20:55:14.671Z,99.90
2023-03-09T20:57:43.498Z,99.90
2023-03-09T21:00:14.785Z,99.90
2023-03-09T21:02:44.188Z,99.90
2023-03-09T21:05:13.765Z,99.90
2023-03-09T21:07:44.221Z,99.90
2023-03-09T21:10:13.798Z,99.90
2023-03-09T21:12:42.647Z,99.90
2023-03-09T21:15:12.908Z,99.90
2023-03-09T21:17:42.172Z,99.90
2023-03-09T21:20:15.461Z,99.90
2023-03-09T21:22:45.650Z,99.90
2023-03-09T21:25:14.920Z,99.90
2023-03-09T21:27:43.909Z,99.90
2023-03-09T21:30:16.472Z,99.90
2023-03-09T21:32:45.996Z,99.90
2023-03-09T21:35:19.445Z,99.90
2023-03-09T21:37:49.814Z,99.90
2023-03-09T21:40:19.129Z,99.90
2023-03-09T21:42:47.949Z,99.90
2023-03-09T21:45:17.525Z,99.90
2023-03-09T21:47:46.409Z,99.90
2023-03-09T21:50:15.421Z,99.90
2023-03-09T21:52:44.357Z,99.90
2023-03-09T21:55:14.625Z,99.90
2023-03-09T21:57:55.952Z,99.90
2023-03-09T22:00:29.381Z,99.90
2023-03-09T22:02:58.279Z,99.90
2023-03-09T22:05:28.213Z,99.90
2023-03-09T22:07:57.525Z,99.90
2023-03-09T22:10:27.898Z,99.90
2023-03-09T22:12:56.738Z,99.90
2023-03-09T22:15:25.509Z,99.90
2023-03-09T22:17:54.334Z,99.90
2023-03-09T22:20:25.153Z,99.90
2023-03-09T22:22:55.141Z,99.90
2023-03-09T22:25:24.324Z,99.90
2023-03-09T22:27:57.698Z,99.90
2023-03-09T22:30:26.999Z,99.90
2023-03-09T22:32:55.813Z,99.90
2023-03-09T22:35:24.932Z,99.90
2023-03-09T22:37:53.940Z,99.90
2023-03-09T22:40:22.967Z,99.90
2023-03-09T22:42:53.204Z,99.90
2023-03-09T22:45:22.024Z,99.90
2023-03-09T22:47:50.877Z,99.90
2023-03-09T22:50:22.855Z,99.90
2023-03-09T22:52:52.110Z,99.90
2023-03-09T22:55:21.199Z,99.90
2023-03-09T22:57:49.994Z,99.90
2023-03-09T23:00:21.009Z,99.90
2023-03-09T23:02:49.821Z,99.90
2023-03-09T23:05:18.918Z,99.90
2023-03-09T23:07:47.774Z,99.90
2023-03-09T23:10:16.835Z,99.90
2023-03-09T23:12:46.101Z,99.90
2023-03-09T23:15:14.931Z,99.90
2023-03-09T23:17:45.184Z,99.90
2023-03-09T23:20:16.505Z,99.90
2023-03-09T23:22:46.005Z,99.90
2023-03-09T23:25:15.865Z,99.90
2023-03-09T23:27:45.027Z,99.90
2023-03-09T23:30:15.765Z,99.90
2023-03-09T23:32:46.182Z,99.90
2023-03-09T23:35:16.412Z,99.90
2023-03-09T23:37:45.208Z,99.90
2023-03-09T23:40:19.348Z,99.90
2023-03-09T23:42:48.764Z,99.90
2023-03-09T23:45:17.990Z,99.90
2023-03-09T23:47:48.600Z,99.90
2023-03-09T23:50:18.271Z,99.90
2023-03-09T23:52:47.005Z,99.90
2023-03-09T23:55:15.871Z,99.90
2023-03-09T23:57:44.875Z,99.90
